createdAt,value
2023-05-14T00:01:37.142Z,12.30
2023-05-14T00:04:05.796Z,13.70
2023-05-14T00:06:34.238Z,12.80
2023-05-14T00:09:02.606Z,12.40
2023-05-14T00:11:30.887Z,13.00
2023-05-14T00:13:59.193Z,13.10
2023-05-14T00:16:27.547Z,11.70
2023-05-14T00:18:55.948Z,11.00
2023-05-14T00:21:24.342Z,11.80
2023-05-14T00:23:52.656Z,11.10
2023-05-14T00:26:21.725Z,11.20
2023-05-14T00:28:50.054Z,11.20
2023-05-14T00:31:18.425Z,13.60
2023-05-14T00:33:46.859Z,12.40
2023-05-14T00:36:15.188Z,13.30
2023-05-14T00:38:43.530Z,11.20
2023-05-14T00:41:12.333Z,14.10
2023-05-14T00:43:40.736Z,12.60
2023-05-14T00:46:09.394Z,11.90
2023-05-14T00:48:37.754Z,11.70
2023-05-14T00:51:08.128Z,11.00
2023-05-14T00:53:36.998Z,11.50
2023-05-14T00:56:07.130Z,12.40
2023-05-14T00:58:35.522Z,12.00
2023-05-14T01:01:04.102Z,10.50
2023-05-14T01:03:33.657Z,12.60
2023-05-14T01:06:12.170Z,13.10
2023-05-14T01:09:09.141Z,13.00
2023-05-14T01:11:53.010Z,12.70
2023-05-14T01:14:33.157Z,13.30
2023-05-14T01:17:04.393Z,13.00
2023-05-14T01:19:42.700Z,11.90
2023-05-14T01:22:12.299Z,10.10
2023-05-14T01:24:41.156Z,10.10
2023-05-14T01:27:47.367Z,10.50
2023-05-14T01:30:29.179Z,10.40
2023-05-14T01:33:00.718Z,11.20
2023-05-14T01:35:30.674Z,11.60
2023-05-14T01:38:01.273Z,10.80
2023-05-14T01:40:31.718Z,12.50
2023-05-14T01:43:02.249Z,12.30
2023-05-14T01:45:31.465Z,12.90
2023-05-14T01:47:59.811Z,12.60
2023-05-14T01:50:28.247Z,11.10
2023-05-14T01:52:56.933Z,11.40
2023-05-14T01:55:25.857Z,11.30
2023-05-14T01:57:54.552Z,10.80
2023-05-14T02:00:26.223Z,9.40
2023-05-14T02:02:54.656Z,10.30
2023-05-14T02:05:24.911Z,11.30
2023-05-14T02:07:55.015Z,10.90
2023-05-14T02:10:23.454Z,10.40
2023-05-14T02:12:51.993Z,11.60
2023-05-14T02:15:20.411Z,12.00
2023-05-14T02:17:48.810Z,13.20
2023-05-14T02:20:17.271Z,13.90
2023-05-14T02:22:46.462Z,12.00
2023-05-14T02:25:15.170Z,9.90
2023-05-14T02:27:43.516Z,12.90
2023-05-14T02:30:12.805Z,11.90
2023-05-14T02:32:41.763Z,10.30
2023-05-14T02:35:10.346Z,11.40
2023-05-14T02:37:38.872Z,12.20
2023-05-14T02:40:07.940Z,11.70
2023-05-14T02:42:36.216Z,13.90
2023-05-14T02:45:05.019Z,14.30
2023-05-14T02:47:36.902Z,13.10
2023-05-14T02:50:07.329Z,14.00
2023-05-14T02:52:36.062Z,14.90
2023-05-14T02:55:05.089Z,12.80
2023-05-14T02:57:33.385Z,13.10
2023-05-14T03:00:01.782Z,14.40
2023-05-14T03:02:30.826Z,14.20
2023-05-14T03:04:59.790Z,14.10
2023-05-14T03:07:28.163Z,14.30
2023-05-14T03:09:56.662Z,13.80
2023-05-14T03:12:24.998Z,12.90
2023-05-14T03:14:53.357Z,14.00
2023-05-14T03:17:21.708Z,13.40
2023-05-14T03:19:50.437Z,15.00
2023-05-14T03:22:18.949Z,13.10
2023-05-14T03:24:49.309Z,12.20
2023-05-14T03:27:17.605Z,12.60
2023-05-14T03:29:45.921Z,12.00
2023-05-14T03:32:15.236Z,11.00
2023-05-14T03:34:44.997Z,11.10
2023-05-14T03:37:13.622Z,9.80
2023-05-14T03:39:42.059Z,11.00
2023-05-14T03:42:10.445Z,10.20
2023-05-14T03:44:38.784Z,10.20
2023-05-14T03:47:07.117Z,9.70
2023-05-14T03:49:35.558Z,9.90
2023-05-14T03:52:04.335Z,10.10
2023-05-14T03:54:32.754Z,11.50
2023-05-14T03:57:02.089Z,12.10
2023-05-14T03:59:30.615Z,11.60
2023-05-14T04:01:58.970Z,11.20
2023-05-14T04:04:27.458Z,11.10
2023-05-14T04:06:56.294Z,9.80
2023-05-14T04:09:24.581Z,10.50
2023-05-14T04:11:52.883Z,11.20
2023-05-14T04:14:21.492Z,10.60
2023-05-14T04:16:49.922Z,11.20
2023-05-14T04:19:18.585Z,10.20
2023-05-14T04:21:47.094Z,9.90
2023-05-14T04:24:15.355Z,9.70
2023-05-14T04:26:43.597Z,9.10
2023-05-14T04:29:11.942Z,10.00
2023-05-14T04:31:40.303Z,9.30
2023-05-14T04:34:08.818Z,9.20
2023-05-14T04:36:37.112Z,9.50
2023-05-14T04:39:06.195Z,8.90
2023-05-14T04:41:34.527Z,8.90
2023-05-14T04:44:03.599Z,9.20
2023-05-14T04:46:32.073Z,8.60
2023-05-14T04:49:00.459Z,8.40
2023-05-14T04:51:28.791Z,9.20
2023-05-14T04:53:57.106Z,9.10
2023-05-14T04:56:26.139Z,9.30
2023-05-14T04:58:54.485Z,8.70
2023-05-14T05:01:23.705Z,9.00
2023-05-14T05:03:52.847Z,9.70
2023-05-14T05:06:21.269Z,10.90
2023-05-14T05:08:49.652Z,8.70
2023-05-14T05:11:18.045Z,8.80
2023-05-14T05:13:46.342Z,9.60
2023-05-14T05:16:14.650Z,9.60
2023-05-14T05:18:44.720Z,9.00
2023-05-14T05:21:13.129Z,8.20
2023-05-14T05:23:41.439Z,8.00
2023-05-14T05:26:09.826Z,8.80
2023-05-14T05:28:38.119Z,9.40
2023-05-14T05:31:06.633Z,9.00
2023-05-14T05:33:35.958Z,7.70
2023-05-14T05:36:04.499Z,8.60
2023-05-14T05:38:32.772Z,8.50
2023-05-14T05:41:01.136Z,9.20
2023-05-14T05:43:29.525Z,8.20
2023-05-14T05:45:57.783Z,7.70
2023-05-14T05:48:26.097Z,7.50
2023-05-14T05:50:54.578Z,5.90
2023-05-14T05:53:22.878Z,7.40
2023-05-14T05:55:51.825Z,6.20
2023-05-14T05:58:20.339Z,6.30
2023-05-14T06:00:48.851Z,5.50
2023-05-14T06:03:17.216Z,5.40
2023-05-14T06:05:46.992Z,6.10
2023-05-14T06:08:16.323Z,6.80
2023-05-14T06:10:47.537Z,7.10
2023-05-14T06:13:16.156Z,5.90
2023-05-14T06:15:44.828Z,5.70
2023-05-14T06:18:13.238Z,6.30
2023-05-14T06:20:41.717Z,5.20
2023-05-14T06:23:12.463Z,5.10
2023-05-14T06:25:41.264Z,5.90
2023-05-14T06:28:09.619Z,5.00
2023-05-14T06:30:37.970Z,5.10
2023-05-14T06:33:06.316Z,4.80
2023-05-14T06:35:34.900Z,3.20
2023-05-14T06:38:03.759Z,4.20
2023-05-14T06:40:32.464Z,3.80
2023-05-14T06:43:00.805Z,3.50
2023-05-14T06:45:31.222Z,4.30
2023-05-14T06:48:01.550Z,3.60
2023-05-14T06:50:29.876Z,3.30
2023-05-14T06:52:58.218Z,3.10
2023-05-14T06:55:26.550Z,3.70
2023-05-14T06:57:54.790Z,3.50
2023-05-14T07:00:23.477Z,3.40
2023-05-14T07:02:52.105Z,3.20
2023-05-14T07:05:20.567Z,3.30
2023-05-14T07:07:48.980Z,3.90
2023-05-14T07:10:18.097Z,3.40
2023-05-14T07:12:46.413Z,3.90
2023-05-14T07:15:14.784Z,3.70
2023-05-14T07:17:43.151Z,4.20
2023-05-14T07:20:12.077Z,3.50
2023-05-14T07:22:40.437Z,3.60
2023-05-14T07:25:09.001Z,3.80
2023-05-14T07:27:37.368Z,3.20
2023-05-14T07:30:06.505Z,3.60
2023-05-14T07:32:34.916Z,3.60
2023-05-14T07:35:03.369Z,3.60
2023-05-14T07:37:31.737Z,4.10
2023-05-14T07:40:00.213Z,3.10
2023-05-14T07:42:35.785Z,3.10
2023-05-14T07:45:05.784Z,3.30
2023-05-14T07:47:34.261Z,3.00
2023-05-14T07:50:03.631Z,3.20
2023-05-14T07:52:31.986Z,3.20
2023-05-14T07:55:01.645Z,3.10
2023-05-14T07:57:30.087Z,3.50
2023-05-14T07:59:58.422Z,3.50
2023-05-14T08:02:26.945Z,3.30
2023-05-14T08:04:55.776Z,3.50
2023-05-14T08:07:24.305Z,3.60
2023-05-14T08:09:52.700Z,3.70
2023-05-14T08:12:21.018Z,3.60
2023-05-14T08:14:49.298Z,3.90
2023-05-14T08:17:18.172Z,3.70
2023-05-14T08:19:47.119Z,4.00
2023-05-14T08:22:15.678Z,3.70
2023-05-14T08:24:44.075Z,4.30
2023-05-14T08:27:12.373Z,3.70
2023-05-14T08:29:40.739Z,3.20
2023-05-14T08:32:19.765Z,3.90
2023-05-14T08:34:52.648Z,4.50
2023-05-14T08:37:21.170Z,4.00
2023-05-14T08:39:49.479Z,3.80
2023-05-14T08:42:22.023Z,3.50
2023-05-14T08:45:02.583Z,3.60
2023-05-14T08:47:31.609Z,3.90
2023-05-14T08:50:12.381Z,3.10
2023-05-14T08:52:41.084Z,3.20
2023-05-14T08:55:12.023Z,2.80
2023-05-14T08:57:40.611Z,2.70
2023-05-14T09:00:12.138Z,3.20
2023-05-14T09:02:41.893Z,3.00
2023-05-14T09:05:10.703Z,3.10
2023-05-14T09:07:39.250Z,3.20
2023-05-14T09:10:09.368Z,3.90
2023-05-14T09:12:37.739Z,2.90
2023-05-14T09:15:06.933Z,3.10
2023-05-14T09:17:35.840Z,3.10
2023-05-14T09:20:04.663Z,3.20
2023-05-14T09:22:34.594Z,3.40
2023-05-14T09:25:09.658Z,3.30
2023-05-14T09:27:38.958Z,3.10
2023-05-14T09:30:12.304Z,3.10
2023-05-14T09:32:50.630Z,3.50
2023-05-14T09:35:23.688Z,3.40
2023-05-14T09:37:55.637Z,3.50
2023-05-14T09:40:25.161Z,3.30
2023-05-14T09:42:53.798Z,3.10
2023-05-14T09:45:22.273Z,3.20
2023-05-14T09:47:50.731Z,2.80
2023-05-14T09:50:19.111Z,3.80
2023-05-14T09:52:48.095Z,2.80
2023-05-14T09:55:16.510Z,3.00
2023-05-14T09:57:45.322Z,3.90
2023-05-14T10:00:14.281Z,3.60
2023-05-14T10:02:45.069Z,3.60
2023-05-14T10:05:14.089Z,3.50
2023-05-14T10:07:49.755Z,3.70
2023-05-14T10:10:24.742Z,3.60
2023-05-14T10:13:04.840Z,3.60
2023-05-14T10:15:49.516Z,3.00
2023-05-14T10:18:23.303Z,2.80
2023-05-14T10:21:06.470Z,3.10
2023-05-14T10:23:40.697Z,3.10
2023-05-14T10:26:10.837Z,2.70
2023-05-14T10:28:39.701Z,3.10
2023-05-14T10:31:10.345Z,3.50
2023-05-14T10:33:50.635Z,3.40
2023-05-14T10:36:22.476Z,3.00
2023-05-14T10:38:57.405Z,3.20
2023-05-14T10:41:25.862Z,2.80
2023-05-14T10:43:56.665Z,2.90
2023-05-14T10:46:25.110Z,2.60
2023-05-14T10:48:53.469Z,3.00
2023-05-14T10:51:23.268Z,2.80
2023-05-14T10:53:52.689Z,3.20
2023-05-14T10:56:21.677Z,3.00
2023-05-14T10:58:50.268Z,3.00
2023-05-14T11:01:18.578Z,3.30
2023-05-14T11:03:47.350Z,3.10
2023-05-14T11:06:16.471Z,3.30
2023-05-14T11:08:46.756Z,3.40
2023-05-14T11:11:15.432Z,2.60
2023-05-14T11:13:44.977Z,3.20
2023-05-14T11:16:22.530Z,2.90
2023-05-14T11:19:03.790Z,2.80
2023-05-14T11:21:35.097Z,2.40
2023-05-14T11:24:05.661Z,2.60
2023-05-14T11:26:34.564Z,2.70
2023-05-14T11:29:03.118Z,3.00
2023-05-14T11:31:31.701Z,2.60
2023-05-14T11:34:01.182Z,2.40
2023-05-14T11:36:29.480Z,2.50
2023-05-14T11:38:57.814Z,3.30
2023-05-14T11:41:28.292Z,2.70
2023-05-14T11:43:58.271Z,2.50
2023-05-14T11:46:26.681Z,2.90
2023-05-14T11:48:55.225Z,2.40
2023-05-14T11:51:24.053Z,2.50
2023-05-14T11:53:52.379Z,2.60
2023-05-14T11:56:22.832Z,3.20
2023-05-14T11:58:57.723Z,2.70
2023-05-14T12:01:26.131Z,3.10
2023-05-14T12:03:54.681Z,2.50
2023-05-14T12:06:31.404Z,2.40
2023-05-14T12:09:01.592Z,2.10
2023-05-14T12:11:33.554Z,2.90
2023-05-14T12:14:01.960Z,2.50
2023-05-14T12:16:33.435Z,2.70
2023-05-14T12:19:03.023Z,2.50
2023-05-14T12:21:32.215Z,3.20
2023-05-14T12:24:01.056Z,2.60
2023-05-14T12:26:33.422Z,2.90
2023-05-14T12:29:03.718Z,2.90
2023-05-14T12:31:36.722Z,2.80
2023-05-14T12:34:05.290Z,2.50
2023-05-14T12:36:33.753Z,2.90
2023-05-14T12:39:03.951Z,2.70
2023-05-14T12:41:33.532Z,3.10
2023-05-14T12:44:03.916Z,2.70
2023-05-14T12:46:34.402Z,3.00
2023-05-14T12:49:02.923Z,3.20
2023-05-14T12:51:31.233Z,3.50
2023-05-14T12:53:59.629Z,2.80
2023-05-14T12:56:28.698Z,2.80
2023-05-14T12:58:57.236Z,3.00
2023-05-14T13:01:26.304Z,2.80
2023-05-14T13:03:55.737Z,2.90
2023-05-14T13:06:24.270Z,2.90
2023-05-14T13:08:52.626Z,3.10
2023-05-14T13:11:22.020Z,2.60
2023-05-14T13:13:50.925Z,2.50
2023-05-14T13:16:19.288Z,3.10
2023-05-14T13:18:47.808Z,3.10
2023-05-14T13:21:16.182Z,3.90
2023-05-14T13:23:44.522Z,3.60
2023-05-14T13:26:12.860Z,3.50
2023-05-14T13:28:41.402Z,3.80
2023-05-14T13:31:12.415Z,3.60
2023-05-14T13:33:43.042Z,3.90
2023-05-14T13:36:13.920Z,3.70
2023-05-14T13:38:42.497Z,3.90
2023-05-14T13:41:10.931Z,4.00
2023-05-14T13:43:39.309Z,3.90
2023-05-14T13:46:07.754Z,4.00
2023-05-14T13:48:37.403Z,3.90
2023-05-14T13:51:05.801Z,4.20
2023-05-14T13:53:34.229Z,4.30
2023-05-14T13:56:02.657Z,3.90
2023-05-14T13:58:30.991Z,4.00
2023-05-14T14:00:59.431Z,4.30
2023-05-14T14:03:27.789Z,3.80
2023-05-14T14:05:56.200Z,3.20
2023-05-14T14:08:24.746Z,3.80
2023-05-14T14:10:55.497Z,4.10
2023-05-14T14:13:24.617Z,3.70
2023-05-14T14:15:53.123Z,3.70
2023-05-14T14:18:21.635Z,3.80
2023-05-14T14:20:49.965Z,3.70
2023-05-14T14:23:18.329Z,3.20
2023-05-14T14:25:46.666Z,3.10
2023-05-14T14:28:15.139Z,3.00
2023-05-14T14:30:44.081Z,3.10
2023-05-14T14:33:12.588Z,2.80
2023-05-14T14:35:41.024Z,3.00
2023-05-14T14:38:09.617Z,3.10
2023-05-14T14:40:38.105Z,3.30
2023-05-14T14:43:06.682Z,3.00
2023-05-14T14:45:35.073Z,2.80
2023-05-14T14:48:22.358Z,2.60
2023-05-14T14:50:54.937Z,2.60
2023-05-14T14:53:24.755Z,3.00
2023-05-14T14:55:53.708Z,2.90
2023-05-14T14:58:22.486Z,2.30
2023-05-14T15:00:53.394Z,2.30
2023-05-14T15:03:22.650Z,2.90
2023-05-14T15:05:52.326Z,2.80
2023-05-14T15:08:29.437Z,2.70
2023-05-14T15:10:57.989Z,2.40
2023-05-14T15:13:27.314Z,2.60
2023-05-14T15:15:55.700Z,2.70
2023-05-14T15:18:24.043Z,2.40
2023-05-14T15:20:53.152Z,3.00
2023-05-14T15:23:21.470Z,2.90
2023-05-14T15:25:50.218Z,2.90
2023-05-14T15:28:18.552Z,3.60
2023-05-14T15:30:48.576Z,2.70
2023-05-14T15:33:19.575Z,3.60
2023-05-14T15:35:48.089Z,2.90
2023-05-14T15:38:16.528Z,3.50
2023-05-14T15:40:44.883Z,3.00
2023-05-14T15:43:13.201Z,3.90
2023-05-14T15:45:41.506Z,3.40
2023-05-14T15:48:09.896Z,3.00
2023-05-14T15:50:38.753Z,3.50
2023-05-14T15:53:07.170Z,3.30
2023-05-14T15:55:35.791Z,3.20
2023-05-14T15:58:04.186Z,3.00
2023-05-14T16:00:32.834Z,3.40
2023-05-14T16:03:01.286Z,4.10
2023-05-14T16:05:29.704Z,2.90
2023-05-14T16:07:58.930Z,3.30
2023-05-14T16:10:27.374Z,3.60
2023-05-14T16:12:56.173Z,3.10
2023-05-14T16:15:24.518Z,2.90
2023-05-14T16:17:52.876Z,3.20
2023-05-14T16:20:21.381Z,3.40
2023-05-14T16:22:49.865Z,4.70
2023-05-14T16:25:18.994Z,4.70
2023-05-14T16:27:47.331Z,4.60
2023-05-14T16:30:15.766Z,3.90
2023-05-14T16:32:46.698Z,3.80
2023-05-14T16:35:16.973Z,4.60
2023-05-14T16:37:45.584Z,4.10
2023-05-14T16:40:16.299Z,3.80
2023-05-14T16:42:46.439Z,3.60
2023-05-14T16:45:16.283Z,3.90
2023-05-14T16:47:44.856Z,4.10
2023-05-14T16:50:13.316Z,3.70
2023-05-14T16:52:41.649Z,4.00
2023-05-14T16:55:10.148Z,3.70
2023-05-14T16:57:38.620Z,3.90
2023-05-14T17:00:09.709Z,4.70
2023-05-14T17:02:38.537Z,3.80
2023-05-14T17:05:08.001Z,3.60
2023-05-14T17:07:38.945Z,3.60
2023-05-14T17:10:07.808Z,3.30
2023-05-14T17:12:36.227Z,3.10
2023-05-14T17:15:07.258Z,3.40
2023-05-14T17:17:35.750Z,4.00
2023-05-14T17:20:06.082Z,4.70
2023-05-14T17:22:34.993Z,3.50
2023-05-14T17:25:03.772Z,6.00
2023-05-14T17:27:33.548Z,3.40
2023-05-14T17:30:03.675Z,4.20
2023-05-14T17:32:32.286Z,4.40
2023-05-14T17:35:00.836Z,3.70
2023-05-14T17:37:30.032Z,3.40
2023-05-14T17:39:58.437Z,3.00
2023-05-14T17:42:26.901Z,2.90
2023-05-14T17:44:56.038Z,2.80
2023-05-14T17:47:24.500Z,2.70
2023-05-14T17:49:53.255Z,2.80
2023-05-14T17:52:21.620Z,3.10
2023-05-14T17:54:50.091Z,3.00
2023-05-14T17:57:18.703Z,3.40
2023-05-14T17:59:47.091Z,2.90
2023-05-14T18:02:15.638Z,3.10
2023-05-14T18:04:44.085Z,3.20
2023-05-14T18:07:12.655Z,2.60
2023-05-14T18:09:41.694Z,3.00
2023-05-14T18:12:15.054Z,2.80
2023-05-14T18:14:45.436Z,3.80
2023-05-14T18:17:14.436Z,3.00
2023-05-14T18:19:43.031Z,3.10
2023-05-14T18:22:11.490Z,2.80
2023-05-14T18:24:39.976Z,2.90
2023-05-14T18:27:08.825Z,2.70
2023-05-14T18:29:37.249Z,3.20
2023-05-14T18:32:06.024Z,3.10
2023-05-14T18:34:34.384Z,3.30
2023-05-14T18:37:02.749Z,3.80
2023-05-14T18:39:31.286Z,2.90
2023-05-14T18:41:59.733Z,2.90
2023-05-14T18:44:28.190Z,2.80
2023-05-14T18:46:56.935Z,2.80
2023-05-14T18:49:25.684Z,3.00
2023-05-14T18:51:54.137Z,2.90
2023-05-14T18:54:22.550Z,3.50
2023-05-14T18:56:50.987Z,3.70
2023-05-14T18:59:19.379Z,3.40
2023-05-14T19:01:47.827Z,4.60
2023-05-14T19:04:16.305Z,3.40
2023-05-14T19:06:44.643Z,3.50
2023-05-14T19:09:15.028Z,3.20
2023-05-14T19:11:43.635Z,3.10
2023-05-14T19:14:12.062Z,3.40
2023-05-14T19:16:41.068Z,3.60
2023-05-14T19:19:09.553Z,3.10
2023-05-14T19:21:37.984Z,3.10
2023-05-14T19:24:06.571Z,3.40
2023-05-14T19:26:35.125Z,3.70
2023-05-14T19:29:03.529Z,3.10
2023-05-14T19:31:31.953Z,3.60
2023-05-14T19:34:00.522Z,3.70
2023-05-14T19:36:31.787Z,3.50
2023-05-14T19:39:00.169Z,6.40
2023-05-14T19:41:28.712Z,3.40
2023-05-14T19:43:57.069Z,3.50
2023-05-14T19:46:25.486Z,3.40
2023-05-14T19:48:53.901Z,3.70
2023-05-14T19:51:22.381Z,3.60
2023-05-14T19:53:50.717Z,3.90
2023-05-14T19:56:19.215Z,3.40
2023-05-14T19:58:47.631Z,3.40
2023-05-14T20:01:16.250Z,4.30
2023-05-14T20:03:44.748Z,3.20
2023-05-14T20:06:13.266Z,3.70
2023-05-14T20:16:33.195Z,3.60
2023-05-14T20:19:01.639Z,4.30
2023-05-14T20:21:30.212Z,3.30
2023-05-14T20:23:58.610Z,3.60
2023-05-14T20:26:27.153Z,4.00
2023-05-14T20:28:55.704Z,3.90
2023-05-14T20:31:24.102Z,3.80
2023-05-14T20:33:52.412Z,3.50
2023-05-14T20:36:20.806Z,3.80
2023-05-14T20:38:49.408Z,3.70
2023-05-14T20:41:17.744Z,4.00
2023-05-14T20:43:46.160Z,3.60
2023-05-14T20:46:14.652Z,4.10
2023-05-14T20:48:43.103Z,3.90
2023-05-14T20:51:11.390Z,4.10
2023-05-14T20:53:40.234Z,3.40
2023-05-14T20:56:08.634Z,4.50
2023-05-14T20:58:37.048Z,3.90
2023-05-14T21:01:08.206Z,4.20
2023-05-14T21:03:37.088Z,4.70
2023-05-14T21:06:05.739Z,4.40
2023-05-14T21:08:35.181Z,5.10
2023-05-14T21:11:03.549Z,6.00
2023-05-14T21:13:31.970Z,4.60
2023-05-14T21:16:00.715Z,5.20
2023-05-14T21:18:32.959Z,5.60
2023-05-14T21:21:01.546Z,5.40
2023-05-14T21:23:29.974Z,4.90
2023-05-14T21:25:58.394Z,4.80
2023-05-14T21:28:26.846Z,4.60
2023-05-14T21:30:55.268Z,4.50
2023-05-14T21:33:23.989Z,4.50
2023-05-14T21:35:52.558Z,4.60
2023-05-14T21:38:21.267Z,5.50
2023-05-14T21:40:49.594Z,4.70
2023-05-14T21:43:18.005Z,5.30
2023-05-14T21:45:49.487Z,4.90
2023-05-14T21:48:18.095Z,4.20
2023-05-14T21:50:46.785Z,4.90
2023-05-14T21:53:15.641Z,4.70
2023-05-14T21:55:44.134Z,5.30
2023-05-14T21:58:12.519Z,4.80
2023-05-14T22:00:41.365Z,4.90
2023-05-14T22:03:09.989Z,4.20
2023-05-14T22:05:38.604Z,4.90
2023-05-14T22:08:07.506Z,5.00
2023-05-14T22:10:36.003Z,4.40
2023-05-14T22:13:04.332Z,4.50
2023-05-14T22:15:32.688Z,4.40
2023-05-14T22:18:01.070Z,5.70
2023-05-14T22:20:29.357Z,4.40
2023-05-14T22:22:57.704Z,5.30
2023-05-14T22:25:26.383Z,4.60
2023-05-14T22:27:55.197Z,4.70
2023-05-14T22:30:23.668Z,4.90
2023-05-14T22:32:52.160Z,5.20
2023-05-14T22:35:21.709Z,4.80
2023-05-14T22:37:50.081Z,4.40
2023-05-14T22:40:18.398Z,4.60
2023-05-14T22:42:46.910Z,4.50
2023-05-14T22:45:15.402Z,4.50
2023-05-14T22:47:43.835Z,4.50
2023-05-14T22:50:12.177Z,4.40
2023-05-14T22:52:41.618Z,4.60
2023-05-14T22:55:10.148Z,4.40
2023-05-14T22:57:39.065Z,4.70
2023-05-14T23:00:09.063Z,4.50
2023-05-14T23:02:37.382Z,4.20
2023-05-14T23:05:08.186Z,4.70
2023-05-14T23:07:36.931Z,4.60
2023-05-14T23:10:06.060Z,3.70
2023-05-14T23:12:34.455Z,4.30
2023-05-14T23:15:03.633Z,3.80
2023-05-14T23:17:32.596Z,4.00
2023-05-14T23:20:01.006Z,4.70
2023-05-14T23:22:29.310Z,4.50
2023-05-14T23:24:57.650Z,4.20
2023-05-14T23:27:26.219Z,5.00
2023-05-14T23:29:54.521Z,5.40
2023-05-14T23:32:23.401Z,4.40
2023-05-14T23:34:52.017Z,4.40
2023-05-14T23:37:20.659Z,4.00
2023-05-14T23:39:49.015Z,4.10
2023-05-14T23:42:17.395Z,4.10
2023-05-14T23:44:45.751Z,4.20
2023-05-14T23:47:14.189Z,4.30
2023-05-14T23:49:42.571Z,4.50
2023-05-14T23:52:11.597Z,5.30
2023-05-14T23:54:39.997Z,4.80
2023-05-14T23:57:08.442Z,4.70
2023-05-14T23:59:36.810Z,4.70
